Terminal Aerodrome Forecast
Issued by NWS Corpus Christi, TX

Home | Current Version | Previous Version | Text Only | Print | Product List | Glossary On
Versions: 1 2 3 4 5 6 7 8 9 10 11 12 13
000
FTUS44 KCRP 260500
TAFCRP
TAF
KCRP 260520Z 2606/2706 32006KT P6SM SCT250
     FM261600 VRB04KT P6SM SCT250
     FM262200 16006KT P6SM FEW250=

USA.gov is the U.S. government's official web portal to all federal, state and local government web resources and services.